Time;durP1;ratioP1;P1;durP2;ratioP2;P2;SDS_P1;SDS_P2;PMS_P1;PMS_P2;Temp;Humidity;BMP_temperature;BMP_pressure;BME280_temperature;BME280_humidity;BME280_pressure;Samples;Min_cycle;Max_cycle;Signal;HPM_P1;HPM_P2
2023/09/17 00:01:38;0.00;0.00;0.62;0.00;0.00;0.62;21.40;19.40;;;28.60;31.30;;;;;;2269130;61;20370;-58
2023/09/17 00:04:24;0.00;0.00;0.62;0.00;0.00;0.62;23.77;21.37;;;28.60;31.40;;;;;;2269432;61;20370;-57
2023/09/17 00:07:09;0.00;0.00;0.62;0.00;0.00;0.62;21.80;19.60;;;28.60;31.40;;;;;;2269404;61;20371;-58
2023/09/17 00:09:54;0.00;0.00;0.62;0.00;0.00;0.62;21.67;19.40;;;28.60;31.40;;;;;;2268971;61;20433;-54
2023/09/17 00:12:39;0.00;0.00;0.62;0.00;0.00;0.62;21.10;19.07;;;28.60;31.40;;;;;;2269444;61;20455;-53
2023/09/17 00:15:27;0.00;0.00;0.62;0.00;0.00;0.62;21.40;19.40;;;28.60;31.50;;;;;;2269317;61;20982;-55
2023/09/17 00:18:12;0.00;0.00;0.62;0.00;0.00;0.62;21.43;19.33;;;28.60;31.50;;;;;;2269045;61;20404;-58
2023/09/17 00:20:58;0.00;0.00;0.62;0.00;0.00;0.62;21.63;19.27;;;28.60;31.50;;;;;;2269741;61;20892;-57
2023/09/17 00:23:43;0.00;0.00;0.62;0.00;0.00;0.62;21.30;19.23;;;28.50;31.40;;;;;;2269310;61;20441;-59
2023/09/17 00:26:27;0.00;0.00;0.62;0.00;0.00;0.62;19.80;17.93;;;28.50;31.40;;;;;;2269601;61;20395;-56
2023/09/17 00:29:12;0.00;0.00;0.62;0.00;0.00;0.62;21.13;18.97;;;28.60;31.60;;;;;;2268647;61;20383;-56
2023/09/17 00:31:57;0.00;0.00;0.62;0.00;0.00;0.62;21.27;19.33;;;28.50;31.50;;;;;;2269253;61;20880;-53
2023/09/17 00:34:41;0.00;0.00;0.62;0.00;0.00;0.62;21.53;19.50;;;28.50;31.50;;;;;;2268894;61;20500;-52
2023/09/17 00:37:28;0.00;0.00;0.62;0.00;0.00;0.62;20.50;18.40;;;28.50;31.40;;;;;;2268964;61;20778;-54
2023/09/17 00:40:13;0.00;0.00;0.62;0.00;0.00;0.62;20.50;18.43;;;28.50;31.50;;;;;;2268329;61;20969;-58
2023/09/17 00:42:57;0.00;0.00;0.62;0.00;0.00;0.62;21.40;19.13;;;28.50;31.50;;;;;;2266383;61;20372;-54
2023/09/17 00:45:43;0.00;0.00;0.62;0.00;0.00;0.62;21.77;19.50;;;28.50;31.50;;;;;;2265161;61;20387;-52
2023/09/17 00:48:27;0.00;0.00;0.62;0.00;0.00;0.62;20.80;18.83;;;28.50;31.50;;;;;;2265014;61;20368;-57
2023/09/17 00:51:12;0.00;0.00;0.62;0.00;0.00;0.62;20.73;18.83;;;28.50;31.50;;;;;;2264843;61;20434;-56
2023/09/17 00:53:59;0.00;0.00;0.62;0.00;0.00;0.62;22.30;20.10;;;28.50;31.60;;;;;;2265045;61;20368;-58
2023/09/17 00:56:43;0.00;0.00;0.62;0.00;0.00;0.62;21.87;19.67;;;28.50;31.60;;;;;;2264714;61;20530;-55
2023/09/17 00:59:28;0.00;0.00;0.62;0.00;0.00;0.62;20.27;18.37;;;28.50;31.60;;;;;;2265081;61;20426;-56
2023/09/17 01:02:14;0.00;0.00;0.62;0.00;0.00;0.62;22.70;20.57;;;28.50;31.60;;;;;;2265001;61;20816;-56
2023/09/17 01:04:59;0.00;0.00;0.62;0.00;0.00;0.62;21.57;19.50;;;28.50;31.70;;;;;;2262233;61;20368;-59
2023/09/17 01:07:45;0.00;0.00;0.62;0.00;0.00;0.62;21.00;18.93;;;28.40;31.60;;;;;;2265600;61;20422;-53
2023/09/17 01:10:33;0.00;0.00;0.62;0.00;0.00;0.62;22.87;20.67;;;28.40;31.60;;;;;;2265451;61;20392;-55
2023/09/17 01:13:19;0.00;0.00;0.62;0.00;0.00;0.62;22.07;19.90;;;28.40;32.30;;;;;;2265258;61;20368;-56
2023/09/17 01:16:03;0.00;0.00;0.62;0.00;0.00;0.62;22.97;20.77;;;28.40;31.70;;;;;;2264997;61;20392;-56
2023/09/17 01:18:48;0.00;0.00;0.62;0.00;0.00;0.62;24.57;21.97;;;28.40;31.70;;;;;;2264595;61;20665;-57
2023/09/17 01:21:41;0.00;0.00;0.62;0.00;0.00;0.62;22.80;20.13;;;28.40;31.90;;;;;;2265302;61;20368;-58
2023/09/17 01:24:40;0.00;0.00;0.62;0.00;0.00;0.62;22.83;20.63;;;28.40;32.00;;;;;;2264720;61;21099;-57
2023/09/17 01:27:27;0.00;0.00;0.62;0.00;0.00;0.62;24.33;22.00;;;28.40;32.00;;;;;;2265480;61;21017;-57
2023/09/17 01:30:15;0.00;0.00;0.62;0.00;0.00;0.62;22.50;20.30;;;28.40;32.10;;;;;;2265251;61;20387;-55
2023/09/17 01:33:01;0.00;0.00;0.62;0.00;0.00;0.62;25.03;22.40;;;28.30;32.10;;;;;;2265508;61;20952;-56
2023/09/17 01:35:57;0.00;0.00;0.62;0.00;0.00;0.62;24.37;21.93;;;28.30;32.20;;;;;;2266372;61;20457;-55
2023/09/17 01:38:54;0.00;0.00;0.62;0.00;0.00;0.62;22.50;20.43;;;28.30;32.30;;;;;;2268704;61;20708;-53
2023/09/17 01:41:41;0.00;0.00;0.62;0.00;0.00;0.62;24.90;22.67;;;28.30;33.00;;;;;;2268782;61;20430;-54
2023/09/17 01:44:29;0.00;0.00;0.62;0.00;0.00;0.62;24.83;22.33;;;28.30;32.30;;;;;;2268867;61;20363;-58
2023/09/17 01:47:16;0.00;0.00;0.62;0.00;0.00;0.62;24.90;22.43;;;28.30;32.30;;;;;;2268621;61;20367;-55
2023/09/17 01:50:02;0.00;0.00;0.62;0.00;0.00;0.62;26.63;23.90;;;28.30;32.30;;;;;;2268262;61;20394;-58
2023/09/17 01:52:47;0.00;0.00;0.62;0.00;0.00;0.62;26.53;24.23;;;28.30;32.30;;;;;;2268997;61;20378;-54
2023/09/17 01:55:32;0.00;0.00;0.62;0.00;0.00;0.62;26.07;23.63;;;28.30;32.30;;;;;;2266634;61;20382;-59
2023/09/17 01:58:17;0.00;0.00;0.62;0.00;0.00;0.62;30.00;27.00;;;28.30;32.30;;;;;;2577670;45;21246;-53
2023/09/17 02:01:03;0.00;0.00;0.62;0.00;0.00;0.62;29.83;26.90;;;28.20;32.20;;;;;;2264500;61;20368;-53
2023/09/17 02:03:49;0.00;0.00;0.62;0.00;0.00;0.62;29.17;26.47;;;28.30;32.30;;;;;;2264632;61;20426;-53
2023/09/17 02:06:36;0.00;0.00;0.62;0.00;0.00;0.62;29.03;26.07;;;28.20;32.20;;;;;;2265086;61;20415;-57
2023/09/17 02:09:23;0.00;0.00;0.62;0.00;0.00;0.62;28.20;25.50;;;28.20;32.20;;;;;;2264103;61;20375;-56
2023/09/17 02:12:08;0.00;0.00;0.62;0.00;0.00;0.62;22.30;20.20;;;28.20;32.20;;;;;;2265573;61;20364;-57
2023/09/17 02:14:53;0.00;0.00;0.62;0.00;0.00;0.62;27.53;25.10;;;28.20;32.20;;;;;;2265247;61;20364;-57
2023/09/17 02:17:39;0.00;0.00;0.62;0.00;0.00;0.62;27.37;24.87;;;28.20;32.20;;;;;;2264914;61;20398;-52
2023/09/17 02:20:24;0.00;0.00;0.62;0.00;0.00;0.62;25.47;22.90;;;28.20;32.20;;;;;;2264767;61;20411;-58
2023/09/17 02:23:10;0.00;0.00;0.62;0.00;0.00;0.62;26.20;23.63;;;28.20;32.20;;;;;;2264632;61;20367;-59
2023/09/17 02:25:54;0.00;0.00;0.62;0.00;0.00;0.62;26.40;23.80;;;28.20;32.20;;;;;;2265587;61;20360;-57
2023/09/17 02:28:39;0.00;0.00;0.62;0.00;0.00;0.62;24.80;22.60;;;28.20;32.20;;;;;;2268398;61;20467;-58
2023/09/17 02:31:24;0.00;0.00;0.62;0.00;0.00;0.62;24.70;22.40;;;28.10;32.20;;;;;;2268725;61;20362;-56
2023/09/17 02:34:10;0.00;0.00;0.62;0.00;0.00;0.62;22.07;20.10;;;28.20;32.40;;;;;;2269053;61;20366;-54
2023/09/17 02:36:55;0.00;0.00;0.62;0.00;0.00;0.62;21.60;19.60;;;28.10;32.40;;;;;;2269138;61;20387;-55
2023/09/17 02:39:39;0.00;0.00;0.62;0.00;0.00;0.62;20.43;18.43;;;28.10;32.40;;;;;;2268549;61;20425;-56
2023/09/17 02:42:25;0.00;0.00;0.62;0.00;0.00;0.62;20.67;18.70;;;28.10;32.50;;;;;;2269033;61;20370;-58
2023/09/17 02:45:11;0.00;0.00;0.62;0.00;0.00;0.62;19.97;18.10;;;28.10;32.60;;;;;;2269046;61;20360;-55
2023/09/17 02:47:56;0.00;0.00;0.62;0.00;0.00;0.62;19.23;17.37;;;28.10;32.60;;;;;;2268219;61;20433;-58
2023/09/17 02:50:42;0.00;0.00;0.62;0.00;0.00;0.62;12.77;11.63;;;28.10;32.70;;;;;;2269109;61;20931;-58
2023/09/17 02:53:27;0.00;0.00;0.62;0.00;0.00;0.62;17.40;15.53;;;28.10;32.80;;;;;;2268435;61;20493;-60
2023/09/17 02:56:11;0.00;0.00;0.62;0.00;0.00;0.62;16.60;15.00;;;28.00;33.00;;;;;;2268838;61;20375;-59
2023/09/17 02:58:56;0.00;0.00;0.62;0.00;0.00;0.62;14.33;13.03;;;28.00;33.10;;;;;;2268359;61;20375;-56
2023/09/17 03:01:41;0.00;0.00;0.62;0.00;0.00;0.62;13.83;12.43;;;28.00;33.20;;;;;;2269123;61;20363;-57
2023/09/17 03:04:27;0.00;0.00;0.62;0.00;0.00;0.62;13.87;12.57;;;28.00;33.40;;;;;;2268651;61;20923;-58
2023/09/17 03:07:17;0.00;0.00;0.62;0.00;0.00;0.62;14.60;13.30;;;27.90;33.20;;;;;;2268884;61;20359;-57
2023/09/17 03:10:07;0.00;0.00;0.62;0.00;0.00;0.62;16.17;14.73;;;27.90;33.30;;;;;;2269039;61;20379;-55
2023/09/17 03:12:52;0.00;0.00;0.62;0.00;0.00;0.62;17.57;15.87;;;27.90;33.30;;;;;;2269492;61;20722;-56
2023/09/17 03:15:37;0.00;0.00;0.62;0.00;0.00;0.62;19.30;17.40;;;27.90;33.40;;;;;;2269037;61;20391;-58
2023/09/17 03:18:21;0.00;0.00;0.62;0.00;0.00;0.62;20.13;18.20;;;27.90;33.40;;;;;;2268871;61;20409;-56
2023/09/17 03:21:07;0.00;0.00;0.62;0.00;0.00;0.62;20.63;18.73;;;27.90;33.40;;;;;;2266576;61;20378;-59
2023/09/17 03:23:53;0.00;0.00;0.62;0.00;0.00;0.62;22.37;20.27;;;27.90;33.40;;;;;;2269635;61;20367;-52
2023/09/17 03:26:38;0.00;0.00;0.62;0.00;0.00;0.62;22.40;20.30;;;27.90;33.50;;;;;;2269553;61;20432;-55
2023/09/17 03:29:24;0.00;0.00;0.62;0.00;0.00;0.62;23.30;21.17;;;27.90;33.40;;;;;;2268982;61;20679;-57
2023/09/17 03:32:10;0.00;0.00;0.62;0.00;0.00;0.62;23.13;20.83;;;27.90;33.50;;;;;;2269412;61;20359;-56
2023/09/17 03:34:55;0.00;0.00;0.62;0.00;0.00;0.62;20.80;18.90;;;27.90;33.50;;;;;;2269644;61;20363;-57
2023/09/17 03:37:40;0.00;0.00;0.62;0.00;0.00;0.62;19.90;18.00;;;27.90;33.50;;;;;;2269132;61;20359;-56
2023/09/17 03:40:26;0.00;0.00;0.62;0.00;0.00;0.62;20.37;18.60;;;27.90;34.20;;;;;;2269563;61;20797;-60
2023/09/17 03:43:11;0.00;0.00;0.62;0.00;0.00;0.62;20.87;18.80;;;27.90;33.50;;;;;;2269266;61;20371;-55
2023/09/17 03:45:57;0.00;0.00;0.62;0.00;0.00;0.62;22.20;20.20;;;27.90;33.50;;;;;;2269418;61;20370;-60
2023/09/17 03:48:42;0.00;0.00;0.62;0.00;0.00;0.62;20.93;18.93;;;27.90;33.50;;;;;;2269163;61;20387;-57
2023/09/17 03:51:28;0.00;0.00;0.62;0.00;0.00;0.62;22.13;19.87;;;27.90;33.50;;;;;;2269691;61;20371;-56
2023/09/17 03:54:13;0.00;0.00;0.62;0.00;0.00;0.62;19.10;17.10;;;27.90;33.60;;;;;;2269586;61;20739;-57
2023/09/17 03:56:59;0.00;0.00;0.62;0.00;0.00;0.62;20.70;18.60;;;27.90;33.60;;;;;;2268637;61;20390;-53
2023/09/17 03:59:44;0.00;0.00;0.62;0.00;0.00;0.62;18.10;16.47;;;27.90;33.70;;;;;;2268692;61;20391;-57
2023/09/17 04:02:29;0.00;0.00;0.62;0.00;0.00;0.62;18.13;16.43;;;27.80;33.70;;;;;;2269152;61;20366;-55
2023/09/17 04:05:14;0.00;0.00;0.62;0.00;0.00;0.62;14.93;13.63;;;27.80;33.70;;;;;;2269550;61;20358;-53
2023/09/17 04:07:59;0.00;0.00;0.62;0.00;0.00;0.62;14.10;12.80;;;27.80;33.80;;;;;;2268367;61;20367;-57
2023/09/17 04:10:44;0.00;0.00;0.62;0.00;0.00;0.62;13.67;12.40;;;27.80;33.90;;;;;;2269828;61;20966;-57
2023/09/17 04:13:31;0.00;0.00;0.62;0.00;0.00;0.62;12.30;11.17;;;27.70;33.90;;;;;;2269708;61;20359;-59
2023/09/17 04:16:20;0.00;0.00;0.62;0.00;0.00;0.62;12.40;11.20;;;27.70;34.10;;;;;;2269701;61;20395;-54
2023/09/17 04:19:05;0.00;0.00;0.62;0.00;0.00;0.62;9.87;8.37;;;27.70;34.40;;;;;;2269158;61;20387;-58
2023/09/17 04:21:50;0.00;0.00;0.62;0.00;0.00;0.62;9.57;8.60;;;27.60;34.40;;;;;;2269769;61;20477;-54
2023/09/17 04:24:34;0.00;0.00;0.62;0.00;0.00;0.62;9.67;8.87;;;27.60;34.60;;;;;;2270101;61;20451;-53
2023/09/17 04:27:19;0.00;0.00;0.62;0.00;0.00;0.62;10.20;9.40;;;27.50;34.60;;;;;;2270043;61;20451;-55
2023/09/17 04:30:07;0.00;0.00;0.62;0.00;0.00;0.62;9.37;8.50;;;27.40;34.70;;;;;;2269178;61;20387;-58
2023/09/17 04:32:54;0.00;0.00;0.62;0.00;0.00;0.62;11.00;10.10;;;27.40;34.70;;;;;;2269855;61;20367;-50
2023/09/17 04:35:39;0.00;0.00;0.62;0.00;0.00;0.62;10.13;8.63;;;27.40;34.70;;;;;;2269441;61;20391;-57
2023/09/17 04:38:27;0.00;0.00;0.62;0.00;0.00;0.62;9.53;8.53;;;27.40;34.80;;;;;;2268757;61;20347;-55
2023/09/17 04:41:12;0.00;0.00;0.62;0.00;0.00;0.62;9.70;8.80;;;27.40;34.80;;;;;;2269334;61;20390;-55
2023/09/17 04:43:57;0.00;0.00;0.62;0.00;0.00;0.62;9.97;8.97;;;27.40;34.80;;;;;;2269136;61;20414;-59
2023/09/17 04:46:43;0.00;0.00;0.62;0.00;0.00;0.62;9.63;8.83;;;27.40;34.80;;;;;;2269724;61;20355;-58
2023/09/17 04:49:28;0.00;0.00;0.62;0.00;0.00;0.62;9.67;8.37;;;27.40;34.70;;;;;;2268899;61;20384;-55
2023/09/17 04:52:13;0.00;0.00;0.62;0.00;0.00;0.62;9.43;8.53;;;27.40;34.70;;;;;;2269430;61;20367;-56
2023/09/17 04:54:57;0.00;0.00;0.62;0.00;0.00;0.62;9.40;8.50;;;27.40;34.70;;;;;;2269209;61;20505;-57
2023/09/17 04:57:42;0.00;0.00;0.62;0.00;0.00;0.62;10.73;8.57;;;27.40;34.70;;;;;;2269499;61;20435;-55
2023/09/17 05:00:26;0.00;0.00;0.62;0.00;0.00;0.62;8.37;7.60;;;27.40;34.70;;;;;;2269222;61;20406;-58
2023/09/17 05:03:12;0.00;0.00;0.62;0.00;0.00;0.62;9.10;8.27;;;27.40;34.80;;;;;;2269068;61;20371;-57
2023/09/17 05:05:57;0.00;0.00;0.62;0.00;0.00;0.62;9.30;8.50;;;27.40;34.80;;;;;;2269124;61;20371;-54
2023/09/17 05:08:42;0.00;0.00;0.62;0.00;0.00;0.62;8.13;7.17;;;27.40;34.90;;;;;;2268886;61;20436;-57
2023/09/17 05:11:27;0.00;0.00;0.62;0.00;0.00;0.62;9.00;8.20;;;27.40;35.00;;;;;;2269195;61;20397;-57
2023/09/17 05:14:12;0.00;0.00;0.62;0.00;0.00;0.62;8.50;7.63;;;27.40;35.20;;;;;;2269423;61;20359;-56
2023/09/17 05:16:56;0.00;0.00;0.62;0.00;0.00;0.62;10.70;7.50;;;27.40;35.20;;;;;;2269892;61;20453;-58
2023/09/17 05:19:42;0.00;0.00;0.62;0.00;0.00;0.62;7.87;7.07;;;27.30;35.20;;;;;;2268642;61;20382;-58
2023/09/17 05:22:26;0.00;0.00;0.62;0.00;0.00;0.62;7.43;6.73;;;27.30;35.20;;;;;;2269189;61;20363;-57
2023/09/17 05:25:11;0.00;0.00;0.62;0.00;0.00;0.62;8.00;7.13;;;27.30;35.80;;;;;;2269181;61;20410;-58
2023/09/17 05:27:56;0.00;0.00;0.62;0.00;0.00;0.62;7.50;6.90;;;27.30;35.20;;;;;;2268519;61;20374;-53
2023/09/17 05:30:41;0.00;0.00;0.62;0.00;0.00;0.62;7.80;7.10;;;27.30;35.10;;;;;;2269173;61;20414;-57
2023/09/17 05:33:26;0.00;0.00;0.62;0.00;0.00;0.62;7.33;6.73;;;27.30;35.10;;;;;;2269031;61;20382;-56
2023/09/17 05:36:14;0.00;0.00;0.62;0.00;0.00;0.62;7.67;6.97;;;27.30;35.10;;;;;;2268917;61;20391;-55
2023/09/17 05:39:00;0.00;0.00;0.62;0.00;0.00;0.62;7.70;6.90;;;27.30;35.10;;;;;;2269397;61;20983;-56
2023/09/17 05:41:45;0.00;0.00;0.62;0.00;0.00;0.62;8.57;7.73;;;27.30;35.10;;;;;;2269313;61;20443;-56
2023/09/17 05:44:30;0.00;0.00;0.62;0.00;0.00;0.62;8.87;7.30;;;27.30;35.10;;;;;;2269170;61;20367;-57
2023/09/17 05:47:15;0.00;0.00;0.62;0.00;0.00;0.62;8.27;6.90;;;27.40;35.20;;;;;;2269286;61;20363;-57
2023/09/17 05:50:01;0.00;0.00;0.62;0.00;0.00;0.62;7.20;6.50;;;27.40;35.20;;;;;;2268649;61;20857;-57
2023/09/17 05:52:51;0.00;0.00;0.62;0.00;0.00;0.62;8.37;7.57;;;27.40;35.20;;;;;;2269090;61;20375;-59
2023/09/17 05:55:36;0.00;0.00;0.62;0.00;0.00;0.62;7.10;6.43;;;27.40;35.20;;;;;;2268803;61;20423;-54
2023/09/17 05:58:21;0.00;0.00;0.62;0.00;0.00;0.62;6.93;6.33;;;27.40;35.20;;;;;;2268565;61;20363;-58
2023/09/17 06:01:05;0.00;0.00;0.62;0.00;0.00;0.62;7.37;6.77;;;27.40;35.20;;;;;;2268915;61;20881;-58
2023/09/17 06:03:50;0.00;0.00;0.62;0.00;0.00;0.62;6.80;6.20;;;27.40;35.10;;;;;;2269144;61;20402;-56
2023/09/17 06:06:36;0.00;0.00;0.62;0.00;0.00;0.62;6.60;6.00;;;27.40;35.10;;;;;;2269159;61;20359;-58
2023/09/17 06:09:22;0.00;0.00;0.62;0.00;0.00;0.62;7.03;6.43;;;27.40;35.10;;;;;;2269179;61;20379;-59
2023/09/17 06:12:07;0.00;0.00;0.62;0.00;0.00;0.62;6.60;6.00;;;27.40;35.10;;;;;;2268556;61;20393;-55
2023/09/17 06:14:52;0.00;0.00;0.62;0.00;0.00;0.62;8.00;7.30;;;27.40;35.10;;;;;;2269465;61;20386;-59
2023/09/17 06:17:37;0.00;0.00;0.62;0.00;0.00;0.62;6.63;6.00;;;27.50;35.20;;;;;;2268719;61;20359;-51
2023/09/17 06:20:22;0.00;0.00;0.62;0.00;0.00;0.62;6.40;5.90;;;27.40;35.20;;;;;;2268927;61;20748;-56
2023/09/17 06:23:07;0.00;0.00;0.62;0.00;0.00;0.62;6.50;5.93;;;27.50;35.20;;;;;;2268974;61;20367;-60
2023/09/17 06:25:53;0.00;0.00;0.62;0.00;0.00;0.62;6.60;6.00;;;27.50;35.20;;;;;;2269063;61;20405;-56
2023/09/17 06:28:38;0.00;0.00;0.62;0.00;0.00;0.62;6.83;6.23;;;27.50;35.20;;;;;;2268517;61;20496;-57
2023/09/17 06:31:23;0.00;0.00;0.62;0.00;0.00;0.62;7.97;6.30;;;27.50;35.20;;;;;;2268994;61;20386;-57
2023/09/17 06:34:09;0.00;0.00;0.62;0.00;0.00;0.62;7.30;6.50;;;27.50;35.20;;;;;;2268801;61;20378;-55
2023/09/17 06:36:55;0.00;0.00;0.62;0.00;0.00;0.62;6.33;5.73;;;27.60;35.20;;;;;;2268635;61;20471;-58
2023/09/17 06:39:39;0.00;0.00;0.62;0.00;0.00;0.62;7.33;5.80;;;27.50;35.20;;;;;;2268526;61;20387;-54
2023/09/17 06:42:25;0.00;0.00;0.62;0.00;0.00;0.62;7.37;6.57;;;27.50;35.20;;;;;;2268688;61;20490;-56
2023/09/17 06:45:11;0.00;0.00;0.62;0.00;0.00;0.62;7.10;6.40;;;27.60;35.30;;;;;;2269117;61;20395;-57
2023/09/17 06:47:56;0.00;0.00;0.62;0.00;0.00;0.62;6.73;6.13;;;27.60;35.30;;;;;;2269372;61;20374;-55
2023/09/17 06:50:40;0.00;0.00;0.62;0.00;0.00;0.62;6.77;6.17;;;27.60;35.30;;;;;;2269491;61;20383;-59
2023/09/17 06:53:25;0.00;0.00;0.62;0.00;0.00;0.62;6.63;6.03;;;27.60;35.50;;;;;;2269274;61;20371;-56
2023/09/17 06:56:12;0.00;0.00;0.62;0.00;0.00;0.62;7.27;6.53;;;27.60;35.60;;;;;;2269430;61;20387;-56
2023/09/17 06:58:58;0.00;0.00;0.62;0.00;0.00;0.62;7.70;5.53;;;27.60;35.60;;;;;;2268727;61;20413;-56
2023/09/17 07:01:45;0.00;0.00;0.62;0.00;0.00;0.62;6.30;5.70;;;27.60;35.60;;;;;;2269591;61;20926;-55
2023/09/17 07:04:29;0.00;0.00;0.62;0.00;0.00;0.62;6.03;5.43;;;27.60;35.60;;;;;;2269308;61;20448;-57
2023/09/17 07:07:14;0.00;0.00;0.62;0.00;0.00;0.62;6.30;5.73;;;27.60;35.60;;;;;;2269255;61;20391;-58
2023/09/17 07:10:00;0.00;0.00;0.62;0.00;0.00;0.62;6.37;5.73;;;27.60;35.60;;;;;;2269002;61;20430;-57
2023/09/17 07:12:45;0.00;0.00;0.62;0.00;0.00;0.62;6.00;5.40;;;27.60;35.60;;;;;;2269351;61;20410;-57
2023/09/17 07:15:30;0.00;0.00;0.62;0.00;0.00;0.62;6.00;5.40;;;27.60;35.60;;;;;;2269289;61;20453;-58
2023/09/17 07:18:15;0.00;0.00;0.62;0.00;0.00;0.62;6.20;5.60;;;27.70;35.70;;;;;;2268718;61;20359;-60
2023/09/17 07:21:00;0.00;0.00;0.62;0.00;0.00;0.62;5.53;5.03;;;27.60;35.60;;;;;;2269343;61;20363;-56
2023/09/17 07:23:44;0.00;0.00;0.62;0.00;0.00;0.62;6.13;5.63;;;27.70;35.70;;;;;;2269249;61;20363;-56
2023/09/17 07:26:29;0.00;0.00;0.62;0.00;0.00;0.62;8.40;5.80;;;27.70;35.70;;;;;;2268895;61;20371;-50
2023/09/17 07:29:13;0.00;0.00;0.62;0.00;0.00;0.62;5.43;4.93;;;27.70;35.60;;;;;;2268917;61;20450;-54
2023/09/17 07:31:59;0.00;0.00;0.62;0.00;0.00;0.62;5.53;5.03;;;27.70;35.60;;;;;;2269334;61;20358;-55
2023/09/17 07:34:44;0.00;0.00;0.62;0.00;0.00;0.62;5.67;5.20;;;27.70;35.60;;;;;;2268293;61;20505;-55
2023/09/17 07:37:29;0.00;0.00;0.62;0.00;0.00;0.62;5.70;5.20;;;27.70;35.60;;;;;;2269104;61;20387;-57
2023/09/17 07:40:14;0.00;0.00;0.62;0.00;0.00;0.62;5.03;4.63;;;27.70;35.60;;;;;;2269072;61;20379;-58
2023/09/17 07:43:00;0.00;0.00;0.62;0.00;0.00;0.62;4.80;4.40;;;27.70;36.20;;;;;;2269407;61;20444;-54
2023/09/17 07:45:45;0.00;0.00;0.62;0.00;0.00;0.62;5.40;4.90;;;27.70;35.40;;;;;;2269289;61;20358;-58
2023/09/17 07:48:31;0.00;0.00;0.62;0.00;0.00;0.62;5.87;5.00;;;27.70;36.00;;;;;;2268898;61;20394;-61
2023/09/17 07:51:16;0.00;0.00;0.62;0.00;0.00;0.62;5.97;5.37;;;27.70;35.30;;;;;;2269216;61;20363;-55
2023/09/17 07:54:01;0.00;0.00;0.62;0.00;0.00;0.62;5.63;4.70;;;27.70;35.30;;;;;;2269286;61;20382;-58
2023/09/17 07:56:45;0.00;0.00;0.62;0.00;0.00;0.62;5.63;5.13;;;27.70;35.40;;;;;;2269592;61;21005;-58
2023/09/17 07:59:30;0.00;0.00;0.62;0.00;0.00;0.62;5.27;4.87;;;27.70;35.40;;;;;;2269814;61;20403;-57
2023/09/17 08:02:14;0.00;0.00;0.62;0.00;0.00;0.62;8.23;5.50;;;27.70;35.40;;;;;;2269709;61;20379;-57
2023/09/17 08:05:00;0.00;0.00;0.62;0.00;0.00;0.62;5.10;4.70;;;27.80;35.30;;;;;;2270180;61;20371;-56
2023/09/17 08:07:45;0.00;0.00;0.62;0.00;0.00;0.62;5.17;4.47;;;27.80;35.20;;;;;;2269920;61;20791;-58
2023/09/17 08:10:30;0.00;0.00;0.62;0.00;0.00;0.62;5.43;4.77;;;27.80;35.20;;;;;;2269841;61;20785;-56
2023/09/17 08:13:14;0.00;0.00;0.62;0.00;0.00;0.62;5.50;5.00;;;27.80;35.20;;;;;;2269722;61;20355;-52
2023/09/17 08:15:59;0.00;0.00;0.62;0.00;0.00;0.62;4.90;4.50;;;27.80;35.10;;;;;;2269923;61;20520;-57
2023/09/17 08:18:44;0.00;0.00;0.62;0.00;0.00;0.62;5.27;4.40;;;27.80;35.10;;;;;;2269271;61;20480;-55
2023/09/17 08:21:30;0.00;0.00;0.62;0.00;0.00;0.62;4.80;4.37;;;27.80;35.10;;;;;;2270002;61;21012;-53
2023/09/17 08:24:15;0.00;0.00;0.62;0.00;0.00;0.62;4.87;4.37;;;27.80;35.10;;;;;;2269900;61;20360;-57
2023/09/17 08:27:00;0.00;0.00;0.62;0.00;0.00;0.62;5.60;4.77;;;27.80;35.10;;;;;;2269875;61;20358;-56
2023/09/17 08:29:45;0.00;0.00;0.62;0.00;0.00;0.62;7.83;4.83;;;27.80;35.10;;;;;;2269279;61;20382;-58
2023/09/17 08:32:30;0.00;0.00;0.62;0.00;0.00;0.62;5.20;4.70;;;27.80;35.20;;;;;;2269903;61;20526;-56
2023/09/17 08:35:15;0.00;0.00;0.62;0.00;0.00;0.62;5.40;4.90;;;27.80;35.20;;;;;;2269848;61;20443;-58
2023/09/17 08:38:01;0.00;0.00;0.62;0.00;0.00;0.62;5.33;4.80;;;27.90;35.30;;;;;;2269837;61;20363;-59
2023/09/17 08:40:46;0.00;0.00;0.62;0.00;0.00;0.62;4.83;4.30;;;27.90;35.30;;;;;;2269853;61;20393;-59
2023/09/17 08:43:31;0.00;0.00;0.62;0.00;0.00;0.62;5.17;4.67;;;27.90;35.40;;;;;;2269899;61;20374;-59
2023/09/17 08:46:16;0.00;0.00;0.62;0.00;0.00;0.62;4.80;4.40;;;27.90;35.40;;;;;;2270403;61;20432;-56
2023/09/17 08:49:01;0.00;0.00;0.62;0.00;0.00;0.62;4.57;4.27;;;27.90;35.50;;;;;;2269589;61;20386;-58
2023/09/17 08:51:47;0.00;0.00;0.62;0.00;0.00;0.62;5.10;4.60;;;27.90;35.60;;;;;;2269281;61;20355;-59
2023/09/17 08:54:41;0.00;0.00;0.62;0.00;0.00;0.62;5.73;4.80;;;27.90;35.50;;;;;;2269803;61;20417;-60
2023/09/17 08:57:28;0.00;0.00;0.62;0.00;0.00;0.62;4.90;4.50;;;27.90;35.50;;;;;;2269533;61;20411;-57
2023/09/17 09:00:17;0.00;0.00;0.62;0.00;0.00;0.62;4.93;4.53;;;28.00;35.60;;;;;;2269164;61;20387;-56
2023/09/17 09:03:06;0.00;0.00;0.62;0.00;0.00;0.62;5.20;4.73;;;28.00;35.50;;;;;;2269078;61;20371;-58
2023/09/17 09:05:55;0.00;0.00;0.62;0.00;0.00;0.62;5.40;4.90;;;28.00;35.50;;;;;;2269952;61;20355;-59
2023/09/17 09:08:42;0.00;0.00;0.62;0.00;0.00;0.62;4.80;4.30;;;28.00;35.40;;;;;;2269259;61;20379;-55
2023/09/17 09:11:28;0.00;0.00;0.62;0.00;0.00;0.62;5.63;5.10;;;28.00;35.50;;;;;;2269453;61;20366;-60
2023/09/17 09:14:14;0.00;0.00;0.62;0.00;0.00;0.62;7.03;4.10;;;28.00;35.40;;;;;;2269758;61;20585;-60
2023/09/17 09:17:00;0.00;0.00;0.62;0.00;0.00;0.62;4.77;4.37;;;28.00;35.40;;;;;;2269525;61;20437;-57
2023/09/17 09:19:45;0.00;0.00;0.62;0.00;0.00;0.62;5.30;4.90;;;28.00;35.40;;;;;;2269372;61;20379;-56
2023/09/17 09:22:30;0.00;0.00;0.62;0.00;0.00;0.62;4.97;4.53;;;28.10;35.80;;;;;;2269768;61;20867;-58
2023/09/17 09:25:16;0.00;0.00;0.62;0.00;0.00;0.62;8.60;5.43;;;28.10;35.80;;;;;;2269661;61;20358;-58
2023/09/17 09:28:03;0.00;0.00;0.62;0.00;0.00;0.62;5.10;4.60;;;28.10;36.00;;;;;;2269304;61;20935;-59
2023/09/17 09:30:47;0.00;0.00;0.62;0.00;0.00;0.62;5.33;4.83;;;28.10;36.30;;;;;;2269738;61;20364;-58
2023/09/17 09:33:33;0.00;0.00;0.62;0.00;0.00;0.62;5.60;5.10;;;28.10;36.40;;;;;;2269860;61;20441;-56
2023/09/17 09:36:19;0.00;0.00;0.62;0.00;0.00;0.62;5.10;4.60;;;28.10;36.50;;;;;;2269785;61;20383;-55
2023/09/17 09:39:04;0.00;0.00;0.62;0.00;0.00;0.62;5.13;4.70;;;28.10;36.20;;;;;;2269402;61;20840;-53
2023/09/17 09:41:50;0.00;0.00;0.62;0.00;0.00;0.62;5.10;4.70;;;28.10;36.10;;;;;;2269778;61;20900;-58
2023/09/17 09:44:36;0.00;0.00;0.62;0.00;0.00;0.62;5.10;4.60;;;28.10;36.80;;;;;;2269630;61;20590;-56
2023/09/17 09:47:22;0.00;0.00;0.62;0.00;0.00;0.62;4.80;4.37;;;28.10;36.20;;;;;;2269815;61;20367;-59
2023/09/17 09:50:20;0.00;0.00;0.62;0.00;0.00;0.62;5.03;4.63;;;28.20;36.30;;;;;;2269352;61;20386;-52
2023/09/17 09:53:05;0.00;0.00;0.62;0.00;0.00;0.62;5.07;4.63;;;28.20;36.20;;;;;;2269877;61;20367;-59
2023/09/17 09:55:50;0.00;0.00;0.62;0.00;0.00;0.62;5.00;4.60;;;28.20;36.20;;;;;;2269679;61;20498;-58
2023/09/17 09:58:36;0.00;0.00;0.62;0.00;0.00;0.62;5.40;4.87;;;28.20;36.30;;;;;;2269339;61;20451;-56
2023/09/17 10:01:22;0.00;0.00;0.62;0.00;0.00;0.62;5.23;4.83;;;28.20;36.50;;;;;;2269432;61;20447;-57
2023/09/17 10:04:09;0.00;0.00;0.62;0.00;0.00;0.62;7.90;4.93;;;28.20;36.60;;;;;;2269591;61;20382;-58
2023/09/17 10:06:55;0.00;0.00;0.62;0.00;0.00;0.62;4.97;4.47;;;28.20;36.70;;;;;;2269662;61;20364;-57
2023/09/17 10:09:41;0.00;0.00;0.62;0.00;0.00;0.62;5.10;4.60;;;28.20;36.80;;;;;;2268909;61;20514;-58
2023/09/17 10:12:27;0.00;0.00;0.62;0.00;0.00;0.62;5.10;4.40;;;28.20;36.80;;;;;;2269633;61;20427;-55
2023/09/17 10:15:13;0.00;0.00;0.62;0.00;0.00;0.62;5.97;5.37;;;28.30;37.00;;;;;;2269410;61;20439;-57
2023/09/17 10:18:00;0.00;0.00;0.62;0.00;0.00;0.62;5.63;5.10;;;28.30;37.00;;;;;;2269085;61;20339;-59
2023/09/17 10:20:47;0.00;0.00;0.62;0.00;0.00;0.62;5.80;5.30;;;28.20;37.00;;;;;;2269659;61;20395;-57
2023/09/17 10:23:34;0.00;0.00;0.62;0.00;0.00;0.62;6.00;5.50;;;28.30;37.20;;;;;;2269374;61;20934;-57
2023/09/17 10:26:22;0.00;0.00;0.62;0.00;0.00;0.62;7.73;6.40;;;28.30;37.30;;;;;;2269719;61;20771;-60
2023/09/17 10:29:07;0.00;0.00;0.62;0.00;0.00;0.62;5.93;5.33;;;28.30;37.30;;;;;;2269216;61;20413;-59
2023/09/17 10:31:53;0.00;0.00;0.62;0.00;0.00;0.62;5.90;5.27;;;28.20;37.30;;;;;;2269385;61;20363;-59
2023/09/17 10:34:40;0.00;0.00;0.62;0.00;0.00;0.62;6.97;5.80;;;28.30;37.40;;;;;;2269554;61;20896;-60
2023/09/17 10:37:27;0.00;0.00;0.62;0.00;0.00;0.62;12.70;6.33;;;28.30;37.40;;;;;;2269427;61;20394;-57
2023/09/17 10:40:13;0.00;0.00;0.62;0.00;0.00;0.62;6.40;5.27;;;28.30;37.60;;;;;;2269168;61;20466;-57
2023/09/17 10:43:01;0.00;0.00;0.62;0.00;0.00;0.62;5.63;5.00;;;28.30;37.60;;;;;;2269477;61;20395;-55
2023/09/17 10:45:47;0.00;0.00;0.62;0.00;0.00;0.62;5.70;5.10;;;28.20;37.50;;;;;;2269003;61;20420;-59
2023/09/17 10:48:33;0.00;0.00;0.62;0.00;0.00;0.62;6.23;5.30;;;28.20;37.60;;;;;;2268926;61;20398;-57